sensor_id;sensor_type;location;lat;lon;timestamp;P1;durP1;ratioP1;P2;durP2;ratioP2
1214;SDS011;597;51.998;5.880;2022-11-15T00:02:22;65.77;;;30.63;;
1214;SDS011;597;51.998;5.880;2022-11-15T00:04:47;83.60;;;33.40;;
1214;SDS011;597;51.998;5.880;2022-11-15T00:07:12;67.43;;;32.07;;
1214;SDS011;597;51.998;5.880;2022-11-15T00:09:37;78.77;;;34.43;;
1214;SDS011;597;51.998;5.880;2022-11-15T00:12:03;76.13;;;33.70;;
1214;SDS011;597;51.998;5.880;2022-11-15T00:14:28;72.20;;;33.00;;
1214;SDS011;597;51.998;5.880;2022-11-15T00:16:53;70.27;;;31.53;;
1214;SDS011;597;51.998;5.880;2022-11-15T00:19:18;72.83;;;35.30;;
1214;SDS011;597;51.998;5.880;2022-11-15T00:21:43;74.47;;;33.67;;
1214;SDS011;597;51.998;5.880;2022-11-15T00:24:09;91.40;;;35.93;;
1214;SDS011;597;51.998;5.880;2022-11-15T00:26:34;90.50;;;35.90;;
1214;SDS011;597;51.998;5.880;2022-11-15T00:28:59;84.57;;;34.97;;
1214;SDS011;597;51.998;5.880;2022-11-15T00:31:24;90.27;;;34.80;;
1214;SDS011;597;51.998;5.880;2022-11-15T00:33:49;75.33;;;33.87;;
1214;SDS011;597;51.998;5.880;2022-11-15T00:36:14;80.90;;;37.00;;
1214;SDS011;597;51.998;5.880;2022-11-15T00:38:40;76.83;;;34.20;;
1214;SDS011;597;51.998;5.880;2022-11-15T00:41:06;89.23;;;34.97;;
1214;SDS011;597;51.998;5.880;2022-11-15T00:43:31;75.23;;;33.60;;
1214;SDS011;597;51.998;5.880;2022-11-15T00:45:57;71.80;;;34.07;;
1214;SDS011;597;51.998;5.880;2022-11-15T00:48:22;66.23;;;33.53;;
1214;SDS011;597;51.998;5.880;2022-11-15T00:50:48;73.60;;;34.80;;
1214;SDS011;597;51.998;5.880;2022-11-15T00:53:13;75.43;;;34.17;;
1214;SDS011;597;51.998;5.880;2022-11-15T00:55:38;71.07;;;35.07;;
1214;SDS011;597;51.998;5.880;2022-11-15T00:58:03;62.37;;;32.33;;
1214;SDS011;597;51.998;5.880;2022-11-15T01:00:29;76.27;;;35.30;;
1214;SDS011;597;51.998;5.880;2022-11-15T01:02:54;85.60;;;37.23;;
1214;SDS011;597;51.998;5.880;2022-11-15T01:05:19;66.90;;;32.63;;
1214;SDS011;597;51.998;5.880;2022-11-15T01:07:44;79.57;;;35.83;;
1214;SDS011;597;51.998;5.880;2022-11-15T01:10:09;77.53;;;35.00;;
1214;SDS011;597;51.998;5.880;2022-11-15T01:12:35;72.10;;;34.80;;
1214;SDS011;597;51.998;5.880;2022-11-15T01:15:00;71.83;;;35.50;;
1214;SDS011;597;51.998;5.880;2022-11-15T01:17:25;73.67;;;35.47;;
1214;SDS011;597;51.998;5.880;2022-11-15T01:19:50;78.33;;;36.27;;
1214;SDS011;597;51.998;5.880;2022-11-15T01:22:16;67.33;;;35.50;;
1214;SDS011;597;51.998;5.880;2022-11-15T01:24:41;68.63;;;34.03;;
1214;SDS011;597;51.998;5.880;2022-11-15T01:27:06;75.90;;;37.07;;
1214;SDS011;597;51.998;5.880;2022-11-15T01:29:32;96.17;;;38.33;;
1214;SDS011;597;51.998;5.880;2022-11-15T01:31:57;83.90;;;36.63;;
1214;SDS011;597;51.998;5.880;2022-11-15T01:34:22;76.23;;;36.03;;
1214;SDS011;597;51.998;5.880;2022-11-15T01:36:47;82.43;;;38.47;;
1214;SDS011;597;51.998;5.880;2022-11-15T01:39:12;69.03;;;35.70;;
1214;SDS011;597;51.998;5.880;2022-11-15T01:41:38;170.30;;;42.50;;
1214;SDS011;597;51.998;5.880;2022-11-15T01:46:47;81.95;;;36.38;;
1214;SDS011;597;51.998;5.880;2022-11-15T01:49:14;106.17;;;39.73;;
1214;SDS011;597;51.998;5.880;2022-11-15T01:51:41;89.65;;;38.95;;
1214;SDS011;597;51.998;5.880;2022-11-15T01:54:08;88.63;;;36.20;;
1214;SDS011;597;51.998;5.880;2022-11-15T01:56:36;93.45;;;38.80;;
1214;SDS011;597;51.998;5.880;2022-11-15T01:59:03;84.65;;;37.17;;
1214;SDS011;597;51.998;5.880;2022-11-15T02:01:29;87.15;;;37.53;;
1214;SDS011;597;51.998;5.880;2022-11-15T02:03:56;95.13;;;40.33;;
1214;SDS011;597;51.998;5.880;2022-11-15T02:06:23;82.07;;;39.88;;
1214;SDS011;597;51.998;5.880;2022-11-15T02:08:48;96.90;;;42.00;;
1214;SDS011;597;51.998;5.880;2022-11-15T02:11:14;76.25;;;37.83;;
1214;SDS011;597;51.998;5.880;2022-11-15T02:13:39;78.20;;;37.50;;
1214;SDS011;597;51.998;5.880;2022-11-15T02:18:52;65.93;;;35.72;;
1214;SDS011;597;51.998;5.880;2022-11-15T02:21:42;68.53;;;36.47;;
1214;SDS011;597;51.998;5.880;2022-11-15T02:26:53;62.43;;;36.17;;
1214;SDS011;597;51.998;5.880;2022-11-15T02:32:03;69.10;;;34.95;;
1214;SDS011;597;51.998;5.880;2022-11-15T02:37:03;69.18;;;34.58;;
1214;SDS011;597;51.998;5.880;2022-11-15T02:42:09;64.22;;;34.97;;
1214;SDS011;597;51.998;5.880;2022-11-15T02:44:56;53.47;;;33.57;;
1214;SDS011;597;51.998;5.880;2022-11-15T02:47:22;63.40;;;36.27;;
1214;SDS011;597;51.998;5.880;2022-11-15T02:49:49;60.28;;;35.28;;
1214;SDS011;597;51.998;5.880;2022-11-15T02:52:19;63.37;;;35.73;;
1214;SDS011;597;51.998;5.880;2022-11-15T02:54:54;67.70;;;36.30;;
1214;SDS011;597;51.998;5.880;2022-11-15T02:57:21;64.05;;;33.63;;
1214;SDS011;597;51.998;5.880;2022-11-15T03:02:36;64.47;;;35.30;;
1214;SDS011;597;51.998;5.880;2022-11-15T03:05:05;67.17;;;33.20;;
1214;SDS011;597;51.998;5.880;2022-11-15T03:07:36;67.67;;;34.17;;
1214;SDS011;597;51.998;5.880;2022-11-15T03:10:06;61.47;;;35.07;;
1214;SDS011;597;51.998;5.880;2022-11-15T03:12:41;58.78;;;32.55;;
1214;SDS011;597;51.998;5.880;2022-11-15T03:15:12;53.63;;;33.10;;
1214;SDS011;597;51.998;5.880;2022-11-15T03:17:41;53.77;;;34.97;;
1214;SDS011;597;51.998;5.880;2022-11-15T03:20:08;59.07;;;33.60;;
1214;SDS011;597;51.998;5.880;2022-11-15T03:22:35;56.83;;;33.93;;
1214;SDS011;597;51.998;5.880;2022-11-15T03:25:02;55.00;;;34.70;;
1214;SDS011;597;51.998;5.880;2022-11-15T03:27:31;59.07;;;36.00;;
1214;SDS011;597;51.998;5.880;2022-11-15T03:29:59;68.93;;;32.10;;
1214;SDS011;597;51.998;5.880;2022-11-15T03:32:26;57.07;;;33.70;;
1214;SDS011;597;51.998;5.880;2022-11-15T03:35:09;54.43;;;32.93;;
1214;SDS011;597;51.998;5.880;2022-11-15T03:40:02;48.37;;;30.37;;
1214;SDS011;597;51.998;5.880;2022-11-15T03:42:30;52.57;;;33.53;;
1214;SDS011;597;51.998;5.880;2022-11-15T03:45:02;53.07;;;30.90;;
1214;SDS011;597;51.998;5.880;2022-11-15T03:50:08;54.40;;;31.83;;
1214;SDS011;597;51.998;5.880;2022-11-15T03:52:34;52.50;;;33.10;;
1214;SDS011;597;51.998;5.880;2022-11-15T03:55:00;51.70;;;32.30;;
1214;SDS011;597;51.998;5.880;2022-11-15T03:57:26;51.23;;;32.30;;
1214;SDS011;597;51.998;5.880;2022-11-15T03:59:51;59.73;;;32.77;;
1214;SDS011;597;51.998;5.880;2022-11-15T04:02:16;53.10;;;32.30;;
1214;SDS011;597;51.998;5.880;2022-11-15T04:04:41;55.67;;;32.30;;
1214;SDS011;597;51.998;5.880;2022-11-15T04:07:07;57.17;;;32.13;;
1214;SDS011;597;51.998;5.880;2022-11-15T04:09:32;57.93;;;31.87;;
1214;SDS011;597;51.998;5.880;2022-11-15T04:11:57;57.87;;;31.20;;
1214;SDS011;597;51.998;5.880;2022-11-15T04:14:22;59.53;;;32.40;;
1214;SDS011;597;51.998;5.880;2022-11-15T04:16:48;50.47;;;33.37;;
1214;SDS011;597;51.998;5.880;2022-11-15T04:19:13;53.27;;;33.50;;
1214;SDS011;597;51.998;5.880;2022-11-15T04:21:56;56.50;;;34.50;;
1214;SDS011;597;51.998;5.880;2022-11-15T04:24:40;61.07;;;35.03;;
1214;SDS011;597;51.998;5.880;2022-11-15T04:27:05;58.20;;;35.30;;
1214;SDS011;597;51.998;5.880;2022-11-15T04:29:31;51.17;;;30.40;;
1214;SDS011;597;51.998;5.880;2022-11-15T04:31:59;60.70;;;33.20;;
1214;SDS011;597;51.998;5.880;2022-11-15T04:34:24;57.83;;;33.00;;
1214;SDS011;597;51.998;5.880;2022-11-15T04:36:49;58.40;;;33.73;;
1214;SDS011;597;51.998;5.880;2022-11-15T04:39:33;61.37;;;35.10;;
1214;SDS011;597;51.998;5.880;2022-11-15T04:41:58;56.93;;;32.93;;
1214;SDS011;597;51.998;5.880;2022-11-15T04:44:23;55.60;;;31.43;;
1214;SDS011;597;51.998;5.880;2022-11-15T04:46:49;57.20;;;34.40;;
1214;SDS011;597;51.998;5.880;2022-11-15T04:49:14;53.67;;;31.93;;
1214;SDS011;597;51.998;5.880;2022-11-15T04:51:39;57.67;;;34.10;;
1214;SDS011;597;51.998;5.880;2022-11-15T04:54:04;57.90;;;32.87;;
1214;SDS011;597;51.998;5.880;2022-11-15T04:56:29;54.73;;;32.70;;
1214;SDS011;597;51.998;5.880;2022-11-15T04:58:55;55.07;;;34.10;;
1214;SDS011;597;51.998;5.880;2022-11-15T05:01:20;59.70;;;31.80;;
1214;SDS011;597;51.998;5.880;2022-11-15T05:03:45;58.10;;;32.43;;
1214;SDS011;597;51.998;5.880;2022-11-15T05:06:29;52.60;;;32.77;;
1214;SDS011;597;51.998;5.880;2022-11-15T05:08:55;50.17;;;31.10;;
1214;SDS011;597;51.998;5.880;2022-11-15T05:11:20;55.73;;;33.60;;
1214;SDS011;597;51.998;5.880;2022-11-15T05:13:46;51.97;;;32.90;;
1214;SDS011;597;51.998;5.880;2022-11-15T05:16:11;57.87;;;32.67;;
1214;SDS011;597;51.998;5.880;2022-11-15T05:18:36;59.63;;;33.67;;
1214;SDS011;597;51.998;5.880;2022-11-15T05:21:05;48.30;;;31.47;;
1214;SDS011;597;51.998;5.880;2022-11-15T05:23:30;55.27;;;31.87;;
1214;SDS011;597;51.998;5.880;2022-11-15T05:25:58;57.50;;;33.97;;
1214;SDS011;597;51.998;5.880;2022-11-15T05:28:23;55.20;;;33.67;;
1214;SDS011;597;51.998;5.880;2022-11-15T05:30:49;63.33;;;32.47;;
1214;SDS011;597;51.998;5.880;2022-11-15T05:33:14;60.47;;;33.67;;
1214;SDS011;597;51.998;5.880;2022-11-15T05:35:40;55.00;;;34.23;;
1214;SDS011;597;51.998;5.880;2022-11-15T05:38:07;59.43;;;33.50;;
1214;SDS011;597;51.998;5.880;2022-11-15T05:40:32;60.97;;;34.53;;
1214;SDS011;597;51.998;5.880;2022-11-15T05:42:59;57.10;;;32.90;;
1214;SDS011;597;51.998;5.880;2022-11-15T05:45:25;70.20;;;34.63;;
1214;SDS011;597;51.998;5.880;2022-11-15T05:47:50;57.60;;;34.37;;
1214;SDS011;597;51.998;5.880;2022-11-15T05:50:16;59.83;;;34.03;;
1214;SDS011;597;51.998;5.880;2022-11-15T05:52:43;58.03;;;32.80;;
1214;SDS011;597;51.998;5.880;2022-11-15T05:55:09;66.00;;;34.63;;
1214;SDS011;597;51.998;5.880;2022-11-15T05:57:34;62.23;;;35.90;;
1214;SDS011;597;51.998;5.880;2022-11-15T06:00:00;65.43;;;34.73;;
1214;SDS011;597;51.998;5.880;2022-11-15T06:02:25;70.20;;;35.37;;
1214;SDS011;597;51.998;5.880;2022-11-15T06:04:50;58.57;;;35.37;;
1214;SDS011;597;51.998;5.880;2022-11-15T06:07:16;55.60;;;34.03;;
1214;SDS011;597;51.998;5.880;2022-11-15T06:09:41;61.23;;;33.33;;
1214;SDS011;597;51.998;5.880;2022-11-15T06:12:06;73.73;;;35.60;;
1214;SDS011;597;51.998;5.880;2022-11-15T06:14:31;56.60;;;34.10;;
1214;SDS011;597;51.998;5.880;2022-11-15T06:16:56;58.90;;;34.17;;
1214;SDS011;597;51.998;5.880;2022-11-15T06:19:21;70.77;;;36.00;;
1214;SDS011;597;51.998;5.880;2022-11-15T06:21:47;55.20;;;33.30;;
1214;SDS011;597;51.998;5.880;2022-11-15T06:24:12;65.87;;;33.10;;
1214;SDS011;597;51.998;5.880;2022-11-15T06:26:37;62.00;;;35.00;;
1214;SDS011;597;51.998;5.880;2022-11-15T06:29:03;59.03;;;33.80;;
1214;SDS011;597;51.998;5.880;2022-11-15T06:31:29;67.13;;;33.83;;
1214;SDS011;597;51.998;5.880;2022-11-15T06:33:54;60.20;;;33.30;;
1214;SDS011;597;51.998;5.880;2022-11-15T06:36:20;56.30;;;31.67;;
1214;SDS011;597;51.998;5.880;2022-11-15T06:38:45;54.23;;;32.60;;
1214;SDS011;597;51.998;5.880;2022-11-15T06:41:11;66.00;;;31.80;;
1214;SDS011;597;51.998;5.880;2022-11-15T06:43:37;61.87;;;32.63;;
1214;SDS011;597;51.998;5.880;2022-11-15T06:46:02;63.50;;;35.83;;
1214;SDS011;597;51.998;5.880;2022-11-15T06:48:28;56.00;;;32.60;;
1214;SDS011;597;51.998;5.880;2022-11-15T06:50:54;76.90;;;35.57;;
1214;SDS011;597;51.998;5.880;2022-11-15T06:53:20;66.70;;;32.77;;
1214;SDS011;597;51.998;5.880;2022-11-15T06:55:45;59.97;;;33.27;;
1214;SDS011;597;51.998;5.880;2022-11-15T06:58:10;69.70;;;36.47;;
1214;SDS011;597;51.998;5.880;2022-11-15T07:00:35;67.37;;;33.43;;
1214;SDS011;597;51.998;5.880;2022-11-15T07:03:01;62.47;;;33.70;;
1214;SDS011;597;51.998;5.880;2022-11-15T07:05:26;77.80;;;34.50;;
1214;SDS011;597;51.998;5.880;2022-11-15T07:07:52;62.80;;;35.40;;
1214;SDS011;597;51.998;5.880;2022-11-15T07:10:18;73.23;;;35.57;;
1214;SDS011;597;51.998;5.880;2022-11-15T07:12:46;62.03;;;32.80;;
1214;SDS011;597;51.998;5.880;2022-11-15T07:15:11;58.57;;;31.77;;
1214;SDS011;597;51.998;5.880;2022-11-15T07:17:36;59.33;;;31.97;;
1214;SDS011;597;51.998;5.880;2022-11-15T07:20:01;63.07;;;32.90;;
1214;SDS011;597;51.998;5.880;2022-11-15T07:22:27;58.00;;;31.33;;
1214;SDS011;597;51.998;5.880;2022-11-15T07:24:52;50.73;;;30.20;;
1214;SDS011;597;51.998;5.880;2022-11-15T07:27:17;63.03;;;31.20;;
1214;SDS011;597;51.998;5.880;2022-11-15T07:29:42;55.70;;;30.83;;
1214;SDS011;597;51.998;5.880;2022-11-15T07:32:08;58.80;;;30.77;;
1214;SDS011;597;51.998;5.880;2022-11-15T07:34:33;49.57;;;29.23;;
1214;SDS011;597;51.998;5.880;2022-11-15T07:36:59;41.83;;;25.80;;
1214;SDS011;597;51.998;5.880;2022-11-15T07:39:24;47.27;;;26.17;;
1214;SDS011;597;51.998;5.880;2022-11-15T07:41:49;37.57;;;23.83;;
1214;SDS011;597;51.998;5.880;2022-11-15T07:44:34;43.50;;;26.60;;
1214;SDS011;597;51.998;5.880;2022-11-15T07:46:59;43.73;;;27.50;;
1214;SDS011;597;51.998;5.880;2022-11-15T07:49:25;47.57;;;25.77;;
1214;SDS011;597;51.998;5.880;2022-11-15T07:51:50;44.07;;;26.10;;
1214;SDS011;597;51.998;5.880;2022-11-15T07:54:15;49.43;;;27.60;;
1214;SDS011;597;51.998;5.880;2022-11-15T07:56:40;54.10;;;28.67;;
1214;SDS011;597;51.998;5.880;2022-11-15T07:59:06;49.13;;;27.80;;
1214;SDS011;597;51.998;5.880;2022-11-15T08:01:31;43.13;;;26.40;;
1214;SDS011;597;51.998;5.880;2022-11-15T08:03:56;48.90;;;28.23;;
1214;SDS011;597;51.998;5.880;2022-11-15T08:06:21;46.17;;;27.50;;
1214;SDS011;597;51.998;5.880;2022-11-15T08:08:47;53.97;;;28.50;;
1214;SDS011;597;51.998;5.880;2022-11-15T08:11:12;52.50;;;27.80;;
1214;SDS011;597;51.998;5.880;2022-11-15T08:13:37;52.73;;;29.20;;
1214;SDS011;597;51.998;5.880;2022-11-15T08:16:03;53.43;;;29.00;;
1214;SDS011;597;51.998;5.880;2022-11-15T08:18:30;51.17;;;26.90;;
1214;SDS011;597;51.998;5.880;2022-11-15T08:20:58;51.93;;;28.03;;
1214;SDS011;597;51.998;5.880;2022-11-15T08:23:23;48.17;;;26.93;;
1214;SDS011;597;51.998;5.880;2022-11-15T08:25:48;44.87;;;27.90;;
1214;SDS011;597;51.998;5.880;2022-11-15T08:28:15;46.67;;;26.37;;
1214;SDS011;597;51.998;5.880;2022-11-15T08:30:41;47.70;;;27.93;;
1214;SDS011;597;51.998;5.880;2022-11-15T08:33:09;48.10;;;26.13;;
1214;SDS011;597;51.998;5.880;2022-11-15T08:35:35;45.13;;;26.40;;
1214;SDS011;597;51.998;5.880;2022-11-15T08:38:00;46.13;;;26.40;;
1214;SDS011;597;51.998;5.880;2022-11-15T08:40:25;43.60;;;26.90;;
1214;SDS011;597;51.998;5.880;2022-11-15T08:42:51;39.57;;;26.67;;
1214;SDS011;597;51.998;5.880;2022-11-15T08:45:17;43.37;;;25.80;;
1214;SDS011;597;51.998;5.880;2022-11-15T08:47:42;43.57;;;23.87;;
1214;SDS011;597;51.998;5.880;2022-11-15T08:50:07;41.60;;;25.47;;
1214;SDS011;597;51.998;5.880;2022-11-15T08:52:33;44.73;;;26.93;;
1214;SDS011;597;51.998;5.880;2022-11-15T08:54:58;45.10;;;27.23;;
1214;SDS011;597;51.998;5.880;2022-11-15T08:57:23;43.63;;;25.93;;
1214;SDS011;597;51.998;5.880;2022-11-15T08:59:48;41.30;;;24.60;;
1214;SDS011;597;51.998;5.880;2022-11-15T09:02:14;36.70;;;23.30;;
1214;SDS011;597;51.998;5.880;2022-11-15T09:04:43;44.60;;;25.57;;
1214;SDS011;597;51.998;5.880;2022-11-15T09:07:11;41.47;;;25.33;;
1214;SDS011;597;51.998;5.880;2022-11-15T09:09:36;41.33;;;23.43;;
1214;SDS011;597;51.998;5.880;2022-11-15T09:12:02;40.73;;;25.00;;
1214;SDS011;597;51.998;5.880;2022-11-15T09:14:28;33.10;;;22.20;;
1214;SDS011;597;51.998;5.880;2022-11-15T09:16:53;36.10;;;22.97;;
1214;SDS011;597;51.998;5.880;2022-11-15T09:19:18;31.27;;;20.83;;
1214;SDS011;597;51.998;5.880;2022-11-15T09:21:43;29.30;;;20.20;;
1214;SDS011;597;51.998;5.880;2022-11-15T09:24:08;28.53;;;20.40;;
1214;SDS011;597;51.998;5.880;2022-11-15T09:26:34;30.40;;;18.70;;
1214;SDS011;597;51.998;5.880;2022-11-15T09:28:59;31.00;;;18.97;;
1214;SDS011;597;51.998;5.880;2022-11-15T09:31:26;24.20;;;16.60;;
1214;SDS011;597;51.998;5.880;2022-11-15T09:33:51;26.73;;;16.83;;
1214;SDS011;597;51.998;5.880;2022-11-15T09:36:16;23.40;;;16.63;;
1214;SDS011;597;51.998;5.880;2022-11-15T09:38:41;25.60;;;16.50;;
1214;SDS011;597;51.998;5.880;2022-11-15T09:43:47;26.77;;;17.17;;
1214;SDS011;597;51.998;5.880;2022-11-15T09:46:19;25.33;;;16.33;;
1214;SDS011;597;51.998;5.880;2022-11-15T09:48:57;29.77;;;17.30;;
1214;SDS011;597;51.998;5.880;2022-11-15T09:51:31;26.93;;;14.20;;
1214;SDS011;597;51.998;5.880;2022-11-15T09:56:24;22.73;;;13.63;;
1214;SDS011;597;51.998;5.880;2022-11-15T10:01:21;21.07;;;13.23;;
1214;SDS011;597;51.998;5.880;2022-11-15T10:03:49;17.83;;;12.50;;
1214;SDS011;597;51.998;5.880;2022-11-15T10:06:21;15.80;;;12.13;;
1214;SDS011;597;51.998;5.880;2022-11-15T10:11:17;17.43;;;12.33;;
1214;SDS011;597;51.998;5.880;2022-11-15T10:13:44;21.23;;;11.50;;
1214;SDS011;597;51.998;5.880;2022-11-15T10:16:21;17.40;;;12.23;;
1214;SDS011;597;51.998;5.880;2022-11-15T10:21:17;13.97;;;11.03;;
1214;SDS011;597;51.998;5.880;2022-11-15T10:23:42;12.47;;;10.70;;
1214;SDS011;597;51.998;5.880;2022-11-15T10:26:08;14.77;;;10.10;;
1214;SDS011;597;51.998;5.880;2022-11-15T10:28:36;15.40;;;9.37;;
1214;SDS011;597;51.998;5.880;2022-11-15T10:31:01;10.67;;;9.53;;
1214;SDS011;597;51.998;5.880;2022-11-15T10:41:12;10.10;;;7.17;;
1214;SDS011;597;51.998;5.880;2022-11-15T10:43:38;10.37;;;8.97;;
1214;SDS011;597;51.998;5.880;2022-11-15T10:46:22;10.60;;;7.53;;
1214;SDS011;597;51.998;5.880;2022-11-15T10:48:47;10.83;;;8.87;;
1214;SDS011;597;51.998;5.880;2022-11-15T10:51:25;6.93;;;5.90;;
1214;SDS011;597;51.998;5.880;2022-11-15T10:53:53;8.40;;;6.57;;
1214;SDS011;597;51.998;5.880;2022-11-15T10:56:20;7.93;;;5.10;;
1214;SDS011;597;51.998;5.880;2022-11-15T10:58:50;6.17;;;4.97;;
1214;SDS011;597;51.998;5.880;2022-11-15T11:01:23;8.07;;;5.40;;
1214;SDS011;597;51.998;5.880;2022-11-15T11:04:07;11.53;;;5.40;;
1214;SDS011;597;51.998;5.880;2022-11-15T11:11:51;7.00;;;4.57;;
1214;SDS011;597;51.998;5.880;2022-11-15T11:14:24;4.27;;;3.50;;
1214;SDS011;597;51.998;5.880;2022-11-15T11:16:57;8.03;;;5.10;;
1214;SDS011;597;51.998;5.880;2022-11-15T11:19:32;7.03;;;3.90;;
1214;SDS011;597;51.998;5.880;2022-11-15T11:22:05;4.40;;;3.40;;
1214;SDS011;597;51.998;5.880;2022-11-15T11:24:43;7.20;;;3.07;;
1214;SDS011;597;51.998;5.880;2022-11-15T11:32:38;10.80;;;3.00;;
1214;SDS011;597;51.998;5.880;2022-11-15T11:40:14;4.13;;;2.57;;
1214;SDS011;597;51.998;5.880;2022-11-15T11:42:44;5.13;;;2.50;;
1214;SDS011;597;51.998;5.880;2022-11-15T11:45:18;4.30;;;2.57;;
1214;SDS011;597;51.998;5.880;2022-11-15T11:47:51;5.50;;;1.93;;
1214;SDS011;597;51.998;5.880;2022-11-15T11:50:18;2.57;;;2.13;;
1214;SDS011;597;51.998;5.880;2022-11-15T11:55:29;6.40;;;2.33;;
1214;SDS011;597;51.998;5.880;2022-11-15T12:00:44;5.37;;;2.67;;
1214;SDS011;597;51.998;5.880;2022-11-15T12:03:16;6.50;;;2.77;;
1214;SDS011;597;51.998;5.880;2022-11-15T12:08:46;6.03;;;2.97;;
1214;SDS011;597;51.998;5.880;2022-11-15T12:11:13;6.90;;;3.43;;
1214;SDS011;597;51.998;5.880;2022-11-15T12:13:39;5.63;;;2.13;;
1214;SDS011;597;51.998;5.880;2022-11-15T12:18:36;8.97;;;2.50;;
1214;SDS011;597;51.998;5.880;2022-11-15T12:21:13;4.73;;;2.27;;
1214;SDS011;597;51.998;5.880;2022-11-15T12:23:46;3.37;;;2.03;;
1214;SDS011;597;51.998;5.880;2022-11-15T12:26:23;4.90;;;2.03;;
1214;SDS011;597;51.998;5.880;2022-11-15T12:29:03;4.53;;;2.40;;
1214;SDS011;597;51.998;5.880;2022-11-15T12:33:58;11.80;;;2.53;;
1214;SDS011;597;51.998;5.880;2022-11-15T12:36:34;4.60;;;2.83;;
1214;SDS011;597;51.998;5.880;2022-11-15T12:39:07;4.77;;;2.70;;
1214;SDS011;597;51.998;5.880;2022-11-15T12:41:34;3.80;;;2.70;;
1214;SDS011;597;51.998;5.880;2022-11-15T12:43:59;5.10;;;2.30;;
1214;SDS011;597;51.998;5.880;2022-11-15T12:48:57;5.43;;;2.67;;
1214;SDS011;597;51.998;5.880;2022-11-15T13:22:46;8.40;;;2.20;;
1214;SDS011;597;51.998;5.880;2022-11-15T13:30:35;4.50;;;2.30;;
1214;SDS011;597;51.998;5.880;2022-11-15T13:33:07;7.33;;;2.07;;
1214;SDS011;597;51.998;5.880;2022-11-15T13:35:33;4.30;;;2.20;;
1214;SDS011;597;51.998;5.880;2022-11-15T13:38:03;7.67;;;2.20;;
1214;SDS011;597;51.998;5.880;2022-11-15T13:40:29;3.43;;;1.63;;
1214;SDS011;597;51.998;5.880;2022-11-15T13:42:58;4.00;;;1.70;;
1214;SDS011;597;51.998;5.880;2022-11-15T13:45:24;4.43;;;1.77;;
1214;SDS011;597;51.998;5.880;2022-11-15T13:47:56;7.90;;;2.73;;
1214;SDS011;597;51.998;5.880;2022-11-15T13:50:24;5.43;;;1.87;;
1214;SDS011;597;51.998;5.880;2022-11-15T13:52:50;7.63;;;2.50;;
1214;SDS011;597;51.998;5.880;2022-11-15T13:55:17;5.50;;;2.30;;
1214;SDS011;597;51.998;5.880;2022-11-15T13:57:47;5.07;;;2.60;;
1214;SDS011;597;51.998;5.880;2022-11-15T14:00:33;15.90;;;3.07;;
1214;SDS011;597;51.998;5.880;2022-11-15T14:05:33;3.13;;;2.27;;
1214;SDS011;597;51.998;5.880;2022-11-15T14:08:58;4.47;;;1.87;;
1214;SDS011;597;51.998;5.880;2022-11-15T14:10:44;3.50;;;2.70;;
1214;SDS011;597;51.998;5.880;2022-11-15T14:13:29;8.73;;;2.60;;
1214;SDS011;597;51.998;5.880;2022-11-15T14:15:54;11.13;;;2.30;;
1214;SDS011;597;51.998;5.880;2022-11-15T14:18:47;4.70;;;2.57;;
1214;SDS011;597;51.998;5.880;2022-11-15T14:21:12;5.10;;;2.60;;
1214;SDS011;597;51.998;5.880;2022-11-15T14:23:38;10.10;;;2.90;;
1214;SDS011;597;51.998;5.880;2022-11-15T14:26:03;6.53;;;2.73;;
1214;SDS011;597;51.998;5.880;2022-11-15T14:28:29;6.13;;;3.13;;
1214;SDS011;597;51.998;5.880;2022-11-15T14:30:56;9.33;;;3.00;;
1214;SDS011;597;51.998;5.880;2022-11-15T14:33:23;7.40;;;2.60;;
1214;SDS011;597;51.998;5.880;2022-11-15T14:35:49;4.47;;;2.73;;
1214;SDS011;597;51.998;5.880;2022-11-15T14:38:14;6.40;;;3.20;;
1214;SDS011;597;51.998;5.880;2022-11-15T14:40:40;4.90;;;3.50;;
1214;SDS011;597;51.998;5.880;2022-11-15T14:43:07;6.60;;;4.43;;
1214;SDS011;597;51.998;5.880;2022-11-15T14:45:33;10.37;;;5.47;;
1214;SDS011;597;51.998;5.880;2022-11-15T14:47:58;7.67;;;3.70;;
1214;SDS011;597;51.998;5.880;2022-11-15T14:50:23;16.63;;;4.13;;
1214;SDS011;597;51.998;5.880;2022-11-15T14:52:48;10.30;;;5.30;;
1214;SDS011;597;51.998;5.880;2022-11-15T14:57:39;15.07;;;6.27;;
1214;SDS011;597;51.998;5.880;2022-11-15T15:00:04;8.73;;;5.47;;
1214;SDS011;597;51.998;5.880;2022-11-15T15:02:30;11.00;;;5.70;;
1214;SDS011;597;51.998;5.880;2022-11-15T15:04:55;11.53;;;4.87;;
1214;SDS011;597;51.998;5.880;2022-11-15T15:07:22;6.80;;;4.07;;
1214;SDS011;597;51.998;5.880;2022-11-15T15:09:48;7.53;;;4.07;;
1214;SDS011;597;51.998;5.880;2022-11-15T15:12:20;4.80;;;3.33;;
1214;SDS011;597;51.998;5.880;2022-11-15T15:14:46;6.33;;;3.30;;
1214;SDS011;597;51.998;5.880;2022-11-15T15:17:11;3.60;;;2.87;;
1214;SDS011;597;51.998;5.880;2022-11-15T15:19:37;7.33;;;3.03;;
1214;SDS011;597;51.998;5.880;2022-11-15T15:22:02;4.67;;;2.77;;
1214;SDS011;597;51.998;5.880;2022-11-15T15:24:27;10.40;;;3.30;;
1214;SDS011;597;51.998;5.880;2022-11-15T15:26:52;4.40;;;2.90;;
1214;SDS011;597;51.998;5.880;2022-11-15T15:29:18;4.33;;;3.30;;
1214;SDS011;597;51.998;5.880;2022-11-15T15:31:43;5.57;;;3.40;;
1214;SDS011;597;51.998;5.880;2022-11-15T15:34:08;8.10;;;3.00;;
1214;SDS011;597;51.998;5.880;2022-11-15T15:36:33;5.77;;;3.93;;
1214;SDS011;597;51.998;5.880;2022-11-15T15:38:58;4.10;;;2.70;;
1214;SDS011;597;51.998;5.880;2022-11-15T15:41:24;8.93;;;2.93;;
1214;SDS011;597;51.998;5.880;2022-11-15T15:43:49;11.10;;;3.90;;
1214;SDS011;597;51.998;5.880;2022-11-15T15:46:16;5.03;;;3.30;;
1214;SDS011;597;51.998;5.880;2022-11-15T15:48:42;5.07;;;2.90;;
1214;SDS011;597;51.998;5.880;2022-11-15T15:51:07;8.23;;;3.67;;
1214;SDS011;597;51.998;5.880;2022-11-15T15:53:33;4.23;;;2.83;;
1214;SDS011;597;51.998;5.880;2022-11-15T15:55:58;7.93;;;3.23;;
1214;SDS011;597;51.998;5.880;2022-11-15T15:58:23;14.30;;;3.77;;
1214;SDS011;597;51.998;5.880;2022-11-15T16:00:48;4.70;;;3.30;;
1214;SDS011;597;51.998;5.880;2022-11-15T16:03:14;6.33;;;3.03;;
1214;SDS011;597;51.998;5.880;2022-11-15T16:05:39;5.20;;;3.40;;
1214;SDS011;597;51.998;5.880;2022-11-15T16:08:04;7.73;;;3.03;;
1214;SDS011;597;51.998;5.880;2022-11-15T16:10:32;5.13;;;3.13;;
1214;SDS011;597;51.998;5.880;2022-11-15T16:13:01;5.53;;;3.27;;
1214;SDS011;597;51.998;5.880;2022-11-15T16:15:27;5.50;;;3.13;;
1214;SDS011;597;51.998;5.880;2022-11-15T16:17:55;5.13;;;3.20;;
1214;SDS011;597;51.998;5.880;2022-11-15T16:20:22;6.10;;;3.00;;
1214;SDS011;597;51.998;5.880;2022-11-15T16:22:48;11.20;;;3.83;;
1214;SDS011;597;51.998;5.880;2022-11-15T16:25:13;12.50;;;3.67;;
1214;SDS011;597;51.998;5.880;2022-11-15T16:27:38;6.87;;;3.80;;
1214;SDS011;597;51.998;5.880;2022-11-15T16:30:20;6.70;;;3.83;;
1214;SDS011;597;51.998;5.880;2022-11-15T16:32:45;5.23;;;3.10;;
1214;SDS011;597;51.998;5.880;2022-11-15T16:35:14;8.77;;;3.27;;
1214;SDS011;597;51.998;5.880;2022-11-15T16:37:40;7.93;;;3.70;;
1214;SDS011;597;51.998;5.880;2022-11-15T16:40:48;5.83;;;3.20;;
1214;SDS011;597;51.998;5.880;2022-11-15T16:42:55;5.77;;;3.50;;
1214;SDS011;597;51.998;5.880;2022-11-15T16:45:20;7.03;;;3.60;;
1214;SDS011;597;51.998;5.880;2022-11-15T16:47:45;9.70;;;3.80;;
1214;SDS011;597;51.998;5.880;2022-11-15T16:50:24;9.50;;;3.80;;
1214;SDS011;597;51.998;5.880;2022-11-15T16:52:53;9.17;;;4.00;;
1214;SDS011;597;51.998;5.880;2022-11-15T16:55:18;10.13;;;4.00;;
1214;SDS011;597;51.998;5.880;2022-11-15T16:57:44;7.73;;;3.73;;
1214;SDS011;597;51.998;5.880;2022-11-15T17:00:10;5.77;;;3.20;;
1214;SDS011;597;51.998;5.880;2022-11-15T17:02:35;15.40;;;5.90;;
1214;SDS011;597;51.998;5.880;2022-11-15T17:05:01;6.43;;;3.20;;
1214;SDS011;597;51.998;5.880;2022-11-15T17:07:26;8.00;;;4.80;;
1214;SDS011;597;51.998;5.880;2022-11-15T17:09:51;8.27;;;4.63;;